Flight Track Log - Related Links

Times and Time Zones

All times are in EDT time to prevent confusion due to time zone crossing. See the N662US flight status page for this flight to view local times or setup timezone preferences in your user account.

Time Position Orientation Groundspeed Altitude Reporting Facility
EDT Latitude Longitude Course Direction KTS MPH feet Rate Location/Type
Tue 06:45:00 AM 35.7448 140.2636 259° West  Level Estimated
Tue 06:46:00 AM 35.7247 140.1408 259° West  Level Estimated
Tue 06:47:00 AM 35.7045 140.0181 259° West  Level Estimated
Tue 06:48:00 AM 35.6841 139.8954 258° West  Level Estimated
Tue 06:49:00 AM 35.6637 139.7729 258° West  Level Estimated
Tue 06:50:00 AM 35.6431 139.6503 258° West  Level Estimated
Tue 06:51:00 AM 35.6224 139.5279 258° West  Level Estimated
Tue 06:52:00 AM 35.6016 139.4055 258° West  Level Estimated
Tue 06:53:00 AM 35.5806 139.2832 258° West  Level Estimated
Tue 06:54:00 AM 35.5595 139.1609 258° West  Level Estimated
Tue 06:54:02 AM 35.7440 140.3900 258° West 168 193 600  Level FlightAware ADS-B
Tue 06:54:12 AM 35.7370 140.3960 145° Southeast 171 197 900 1,800 Climbing FlightAware ADS-B
Tue 06:54:42 AM 35.7160 140.4100 152° Southeast 181 208 1,800 1,867 Climbing FlightAware ADS-B
Tue 06:54:57 AM 35.7070 140.4170 148° Southeast 183 211 2,300 2,267 Climbing FlightAware ADS-B
Tue 06:55:27 AM 35.6820 140.4340 151° Southeast 189 217 3,500 1,800 Climbing FlightAware ADS-B
Tue 06:55:57 AM 35.6570 140.4530 148° Southeast 233 268 4,100 1,200 Climbing FlightAware ADS-B
Tue 06:56:22 AM 35.6350 140.4690 149° Southeast 259 298 4,600 2,160 Climbing FlightAware ADS-B
Tue 06:56:47 AM 35.6050 140.4910 149° Southeast 273 314 5,900 3,055 Climbing FlightAware ADS-B
Tue 06:57:17 AM 35.5710 140.5150 150° Southeast 284 327 7,400 2,800 Climbing FlightAware ADS-B
Tue 06:57:32 AM 35.5580 140.5240 151° Southeast 287 330 8,000 2,679 Climbing FlightAware ADS-B
Tue 06:58:13 AM 35.5040 140.5240 180° South 296 341 9,900 2,400 Climbing FlightAware ADS-B
Tue 06:58:42 AM 35.4820 140.4810 238° Southwest 314 361 10,800 1,778 Climbing FlightAware ADS-B
Tue 06:59:07 AM 35.4900 140.4320 281° West 343 395 11,500 1,600 Climbing FlightAware ADS-B
Tue 06:59:27 AM 35.5130 140.4050 316° Northwest 362 417 12,000 1,800 Climbing FlightAware ADS-B
Tue 07:00:07 AM 35.5780 140.3710 337° Northwest 404 465 13,300 2,634 Climbing FlightAware ADS-B
Tue 07:00:49 AM 35.6470 140.3370 338° Northwest 417 480 15,600 3,286 Climbing FlightAware ADS-B
Tue 07:01:31 AM 35.7280 140.2920 336° Northwest 429 494 17,900 2,604 Climbing FlightAware ADS-B
Tue 07:01:42 AM 35.7440 140.2770 323° Northwest 431 496 17,900 2,400 Level FlightAware ADS-B
Tue 07:01:56 AM 35.7610 140.2500 308° West 429 494 18,900 3,600 Climbing FlightAware ADS-B
Tue 07:02:12 AM 35.7730 140.2140 292° West 431 496 19,700 2,710 Climbing FlightAware ADS-B
Tue 07:02:27 AM 35.7760 140.1770 276° West 434 499 20,300 2,229 Climbing FlightAware ADS-B
Tue 07:03:22 AM 35.7720 140.0380 268° West 442 509 22,300 2,400 Climbing FlightAware ADS-B
Tue 07:04:02 AM 35.7380 139.9480 245° Southwest 447 514 24,100 2,541 Climbing FlightAware ADS-B
Tue 07:04:47 AM 35.6980 139.8420 245° Southwest 449 517 25,900 2,118 Climbing FlightAware ADS-B
Tue 07:05:27 AM 35.6870 139.7470 262° West 456 525 27,100 1,875 Climbing FlightAware ADS-B
Tue 07:06:07 AM 35.6800 139.6370 266° West 464 534 28,400 1,714 Climbing FlightAware ADS-B
Tue 07:06:51 AM 35.6750 139.5310 267° West 473 544 29,500 2,090 Climbing FlightAware ADS-B
Tue 07:07:36 AM 35.6690 139.4010 267° West 467 537 31,500 2,471 Climbing FlightAware ADS-B
Tue 07:08:16 AM 35.6630 139.2930 266° West 461 531 33,000 2,175 Climbing FlightAware ADS-B
Tue 07:08:56 AM 35.6580 139.1920 267° West 451 519 34,400 2,074 Climbing FlightAware ADS-B
Tue 07:09:37 AM 35.6530 139.0910 267° West 443 510 35,800 1,906 Climbing FlightAware ADS-B
Tue 07:10:21 AM 35.6470 138.9770 266° West 433 498 37,100 1,610 Climbing FlightAware ADS-B
Tue 07:10:59 AM 35.6420 138.8850 266° West 425 489 38,000 635 Climbing FlightAware ADS-B
Tue 07:11:46 AM 35.6360 138.7720 266° West 422 486 38,000  Level FlightAware ADS-B
Tue 07:13:13 AM 35.6250 138.5700 266° West 417 480 38,000  Level FlightAware ADS-B
Tue 07:13:54 AM 35.6190 138.4690 266° West 416 479 38,000  Level FlightAware ADS-B
Tue 07:14:34 AM 35.6130 138.3740 266° West 417 480 38,000  Level FlightAware ADS-B
Tue 07:15:14 AM 35.6080 138.2800 266° West 418 481 38,000  Level FlightAware ADS-B
Tue 07:15:54 AM 35.5970 138.1930 261° West 418 481 38,000  Level FlightAware ADS-B
Tue 07:16:39 AM 35.5770 138.0820 258° West 417 480 38,000  Level FlightAware ADS-B
Tue 07:17:24 AM 35.5610 137.9800 259° West 416 479 38,000  Level FlightAware ADS-B
Tue 07:18:04 AM 35.5470 137.8830 260° West 416 479 38,000  Level FlightAware ADS-B
Tue 07:18:49 AM 35.5310 137.7790 259° West 415 478 38,000  Level FlightAware ADS-B
Tue 07:19:29 AM 35.5160 137.6880 259° West 416 479 38,000  Level FlightAware ADS-B
Tue 07:20:09 AM 35.5020 137.6000 259° West 416 479 38,000  Level FlightAware ADS-B
Tue 07:20:51 AM 35.4860 137.4980 259° West 417 480 38,000  Level FlightAware ADS-B
Tue 07:21:31 AM 35.4710 137.4060 259° West 418 481 38,000  Level FlightAware ADS-B
Tue 07:22:16 AM 35.4540 137.3010 259° West 419 482 38,000  Level FlightAware ADS-B
Tue 07:22:52 AM 35.4430 137.2290 259° West 420 483 38,000  Level FlightAware ADS-B
Tue 07:23:41 AM 35.4220 137.1020 259° West 420 483 38,000  Level FlightAware ADS-B
Tue 07:24:23 AM 35.4070 137.0090 259° West 420 483 38,000  Level FlightAware ADS-B
Tue 07:25:01 AM 35.3920 136.9210 258° West 421 484 38,000  Level FlightAware ADS-B
Tue 07:26:01 AM 35.3670 136.7760 258° West 420 483 38,000  Level FlightAware ADS-B
Tue 07:26:39 AM 35.3520 136.6880 258° West 420 483 38,000  Level FlightAware ADS-B
Tue 07:27:25 AM 35.3350 136.5880 258° West 419 482 38,000  Level FlightAware ADS-B
Tue 07:28:04 AM 35.3190 136.4950 258° West 419 482 38,000  Level FlightAware ADS-B
Tue 07:28:49 AM 35.3000 136.3890 258° West 418 481 38,000  Level FlightAware ADS-B
Tue 07:29:24 AM 35.2860 136.3050 258° West 417 480 38,000  Level FlightAware ADS-B
Tue 07:30:14 AM 35.2660 136.1920 258° West 416 479 38,000  Level FlightAware ADS-B
Tue 07:30:54 AM 35.2500 136.1010 258° West 416 479 38,000  Level FlightAware ADS-B
Tue 07:31:34 AM 35.2330 136.0060 258° West 416 479 38,000  Level FlightAware ADS-B
Tue 07:32:14 AM 35.2160 135.9140 257° West 416 479 38,000  Level FlightAware ADS-B
Tue 07:32:54 AM 35.2000 135.8220 258° West 415 478 38,000  Level FlightAware ADS-B
Tue 07:33:39 AM 35.1810 135.7170 258° West 416 479 38,000  Level FlightAware ADS-B
Tue 07:34:24 AM 35.1640 135.6180 258° West 416 479 38,000  Level FlightAware ADS-B
Tue 07:35:04 AM 35.1460 135.5220 257° West 415 478 38,000  Level FlightAware ADS-B
Tue 07:35:44 AM 35.1310 135.4400 257° West 415 478 38,000  Level FlightAware ADS-B
Tue 07:36:29 AM 35.1110 135.3330 257° West 414 476 38,000  Level FlightAware ADS-B
Tue 07:37:15 AM 35.0910 135.2260 257° West 414 476 38,000  Level FlightAware ADS-B
Tue 07:37:55 AM 35.0750 135.1400 257° West 413 475 38,000  Level FlightAware ADS-B
Tue 07:38:36 AM 35.0580 135.0470 257° West 412 474 38,000  Level FlightAware ADS-B
Tue 07:39:14 AM 35.0410 134.9540 257° West 411 473 38,000  Level FlightAware ADS-B
Tue 07:39:55 AM 35.0250 134.8680 257° West 410 472 38,000  Level FlightAware ADS-B
Tue 07:40:43 AM 35.0080 134.7810 257° West 408 470 38,000  Level FlightAware ADS-B
Tue 07:41:24 AM 34.9860 134.6620 257° West 408 470 38,000  Level FlightAware ADS-B
Tue 07:42:00 AM 34.9720 134.5930 256° West 406 467 38,000  Level FlightAware ADS-B
Tue 07:42:45 AM 34.9520 134.4910 257° West 405 466 38,000  Level FlightAware ADS-B
Tue 07:43:25 AM 34.9340 134.4020 256° West 406 467 38,000  Level FlightAware ADS-B
Tue 07:44:13 AM 34.9130 134.2940 257° West 404 465 38,000  Level FlightAware ADS-B
Tue 07:44:53 AM 34.8950 134.2030 256° West 403 464 38,000  Level FlightAware ADS-B
Tue 07:45:50 AM 34.8690 134.0730 256° West 400 460 38,000  Level FlightAware ADS-B
Tue 07:46:30 AM 34.8510 133.9860 256° West 399 459 38,000  Level FlightAware ADS-B
Tue 07:47:16 AM 34.8310 133.8880 256° West 398 458 38,000  Level FlightAware ADS-B
Tue 07:47:55 AM 34.8140 133.8060 256° West 397 457 38,000  Level FlightAware ADS-B
Tue 07:48:35 AM 34.7960 133.7190 256° West 395 455 38,000  Level FlightAware ADS-B
Tue 07:49:20 AM 34.7740 133.6180 255° West 394 453 38,000  Level FlightAware ADS-B
Tue 07:50:00 AM 34.7560 133.5330 256° West 394 453 38,000  Level FlightAware ADS-B
Tue 07:50:45 AM 34.7360 133.4360 256° West 393 452 38,000  Level FlightAware ADS-B
Tue 07:51:26 AM 34.7170 133.3510 255° West 392 451 38,000  Level FlightAware ADS-B
Tue 07:52:06 AM 34.6960 133.2670 253° West 391 450 38,000  Level FlightAware ADS-B
Tue 07:52:46 AM 34.6660 133.1860 246° West 388 447 38,000  Level FlightAware ADS-B
Tue 07:53:31 AM 34.6350 133.0970 247° West 387 445 38,000  Level FlightAware ADS-B
Tue 07:54:25 AM 34.5990 132.9870 248° West 381 438 38,000  Level FlightAware ADS-B
Tue 07:55:05 AM 34.5720 132.9070 248° West 384 442 38,000  Level FlightAware ADS-B
Tue 07:55:46 AM 34.5460 132.8270 248° West 386 444 38,000  Level FlightAware ADS-B
Tue 07:56:30 AM 34.5150 132.7370 247° West 387 445 38,000  Level FlightAware ADS-B
Tue 07:57:15 AM 34.4850 132.6460 248° West 390 449 38,000  Level FlightAware ADS-B
Tue 07:57:46 AM 34.4630 132.5830 247° West 390 449 38,000  Level FlightAware ADS-B
Tue 07:58:26 AM 34.4360 132.5040 248° West 391 450 38,000  Level FlightAware ADS-B
Tue 07:59:11 AM 34.4040 132.4110 247° West 390 449 38,000  Level FlightAware ADS-B
Tue 07:59:51 AM 34.3760 132.3320 247° West 392 451 38,000  Level FlightAware ADS-B
Tue 08:00:51 AM 34.3340 132.2120 247° West 395 455 38,000  Level FlightAware ADS-B
Tue 08:01:34 AM 34.3020 132.1180 248° West 395 455 38,000  Level FlightAware ADS-B
Tue 08:02:14 AM 34.2730 132.0390 246° West 395 455 38,000  Level FlightAware ADS-B
Tue 08:03:00 AM 34.2410 131.9470 247° West 395 455 38,000  Level FlightAware ADS-B
Tue 08:03:39 AM 34.2120 131.8660 247° West 397 457 38,000  Level FlightAware ADS-B
Tue 08:04:24 AM 34.1800 131.7740 247° West 398 458 38,000  Level FlightAware ADS-B
Tue 08:05:20 AM 34.1420 131.6700 246° West 396 456 38,000  Level FlightAware ADS-B
Tue 08:05:57 AM 34.1120 131.5850 247° West 388 447 38,000  Level FlightAware ADS-B
Tue 08:06:42 AM 34.0800 131.4960 247° West 384 442 38,000  Level FlightAware ADS-B
Tue 08:07:27 AM 34.0480 131.4060 247° West 383 441 38,000  Level FlightAware ADS-B
Tue 08:08:07 AM 34.0200 131.3280 247° West 382 440 38,000  Level FlightAware ADS-B
Tue 08:08:52 AM 33.9880 131.2390 247° West 380 437 38,000  Level FlightAware ADS-B
Tue 08:09:32 AM 33.9600 131.1630 246° West 379 436 38,000  Level FlightAware ADS-B
Tue 08:10:17 AM 33.9270 131.0730 246° West 378 435 38,000  Level FlightAware ADS-B
Tue 08:10:52 AM 33.9030 131.0070 246° West 378 435 38,000  Level FlightAware ADS-B
Tue 08:11:41 AM 33.8680 130.9120 246° West 379 436 38,000  Level FlightAware ADS-B
Tue 08:12:18 AM 33.8570 130.8810 247° West 379 436 38,000  Level FlightAware ADS-B
Tue 08:13:02 AM 33.8100 130.7520 246° West 380 437 38,000  Level FlightAware ADS-B
Tue 08:13:54 AM 33.7730 130.6520 246° West 384 442 38,000  Level FlightAware ADS-B
Tue 08:14:39 AM 33.7390 130.5600 246° West 385 443 38,000  Level FlightAware ADS-B
Tue 08:15:19 AM 33.7120 130.4860 246° West 387 445 38,000  Level FlightAware ADS-B
Tue 08:15:59 AM 33.6820 130.4070 245° Southwest 389 448 38,000  Level FlightAware ADS-B
Tue 08:16:49 AM 33.6280 130.3140 235° Southwest 397 457 38,000  Level FlightAware ADS-B
Tue 08:17:24 AM 33.5910 130.2560 233° Southwest 397 457 38,000  Level FlightAware ADS-B
Tue 08:18:09 AM 33.5400 130.1750 233° Southwest 396 456 38,000  Level FlightAware ADS-B
Tue 08:18:49 AM 33.4970 130.1080 232° Southwest 393 452 38,000  Level FlightAware ADS-B
Tue 08:19:34 AM 33.4530 130.0220 239° Southwest 386 444 38,000  Level FlightAware ADS-B
Tue 08:20:33 AM 33.4170 129.9170 248° West 384 442 38,000  Level FlightAware ADS-B
Tue 08:21:10 AM 33.3940 129.8360 251° West 381 438 38,000  Level FlightAware ADS-B
Tue 08:22:10 AM 33.3580 129.7170 250° West 381 438 38,000  Level FlightAware ADS-B
Tue 08:22:45 AM 33.3380 129.6470 251° West 382 440 38,000  Level FlightAware ADS-B
Tue 08:23:31 AM 33.3110 129.5580 250° West 382 440 38,000  Level FlightAware ADS-B
Tue 08:24:14 AM 33.2840 129.4700 250° West 382 440 38,000  Level FlightAware ADS-B
Tue 08:24:58 AM 33.2560 129.3790 250° West 385 443 38,000  Level FlightAware ADS-B
Tue 08:25:39 AM 33.2340 129.3060 250° West 384 442 38,000  Level FlightAware ADS-B
Tue 08:26:13 AM 33.2120 129.2320 250° West 386 444 38,000  Level FlightAware ADS-B
Tue 08:27:13 AM 33.1960 129.1790 250° West 386 444 38,000  Level FlightAware ADS-B
Tue 08:28:00 AM 33.1720 129.0980 251° West 386 444 38,000  Level FlightAware ADS-B
Tue 08:28:36 AM 33.1530 129.0370 250° West 386 444 38,000  Level FlightAware ADS-B
Tue 08:29:26 AM 33.1270 128.9520 250° West 386 444 38,000  Level FlightAware ADS-B
Tue 08:30:03 AM 33.1080 128.8890 250° West 386 444 38,000  Level FlightAware ADS-B
Tue 08:30:45 AM 33.0860 128.8170 250° West 386 444 38,000  Level FlightAware ADS-B
Tue 08:31:31 AM 33.0620 128.7390 250° West 386 444 38,000  Level FlightAware ADS-B
Tue 08:32:08 AM 33.0430 128.6760 250° West 386 444 38,000  Level FlightAware ADS-B
Tue 08:32:45 AM 33.0240 128.6130 250° West 386 444 38,000  Level FlightAware ADS-B
Tue 08:33:35 AM 32.9980 128.5280 250° West 386 444 38,000  Level FlightAware ADS-B
Tue 08:34:11 AM 32.9790 128.4670 250° West 386 444 38,000  Level FlightAware ADS-B
Tue 08:34:59 AM 32.9540 128.3850 250° West 386 444 38,000  Level FlightAware ADS-B
Tue 08:35:38 AM 32.9340 128.3190 250° West 386 444 38,000  Level FlightAware ADS-B
Tue 08:36:39 AM 32.9020 128.2150 250° West 386 444 38,000 -639 Level FlightAware ADS-B
Tue 08:39:00 AM 32.8334 127.9349 254° West  Level Estimated
Tue 08:40:00 AM 32.8040 127.8158 254° West  Level Estimated
Tue 08:41:00 AM 32.7745 127.6969 254° West  Level Estimated
Tue 08:42:00 AM 32.7451 127.5787 254° West  Level Estimated
Tue 08:43:00 AM 32.7156 127.4607 253° West  Level Estimated
Tue 08:44:00 AM 32.6859 127.3427 253° West  Level Estimated
Tue 08:45:00 AM 32.6562 127.2248 253° West  Level Estimated
Tue 08:46:00 AM 32.6263 127.1069 253° West  Level Estimated
Tue 08:47:00 AM 32.5963 126.9892 253° West  Level Estimated
Tue 08:48:00 AM 32.5663 126.8715 253° West  Level Estimated
Tue 08:49:00 AM 32.5361 126.7539 253° West  Level Estimated
Tue 08:50:00 AM 32.5058 126.6364 253° West  Level Estimated
Tue 08:51:00 AM 32.4754 126.5190 253° West  Level Estimated
Tue 08:52:00 AM 32.4448 126.4016 253° West  Level Estimated
Tue 08:53:00 AM 32.4142 126.2844 253° West  Level Estimated
Tue 08:54:00 AM 32.3835 126.1672 253° West  Level Estimated
Tue 08:55:00 AM 32.3526 126.0501 253° West  Level Estimated
Tue 08:56:00 AM 32.3217 125.9330 253° West  Level Estimated
Tue 08:57:00 AM 32.2906 125.8161 253° West  Level Estimated
Tue 08:58:00 AM 32.2595 125.6992 253° West  Level Estimated
Tue 08:59:00 AM 32.2282 125.5824 252° West  Level Estimated
Tue 09:00:00 AM 32.1968 125.4657 252° West  Level Estimated
Tue 09:01:00 AM 32.1653 125.3491 252° West  Level Estimated
Tue 09:02:00 AM 32.1337 125.2325 252° West  Level Estimated
Tue 09:03:00 AM 32.1020 125.1161 252° West  Level Estimated
Tue 09:04:00 AM 32.0702 124.9997 252° West  Level Estimated
Tue 09:05:00 AM 32.0383 124.8834 252° West  Level Estimated
Tue 09:06:00 AM 32.0063 124.7671 252° West  Level Estimated
Tue 09:07:00 AM 31.9742 124.6510 252° West  Level Estimated
Tue 09:08:00 AM 31.9419 124.5349 252° West  Level Estimated
Tue 09:09:00 AM 31.9096 124.4190 252° West  Level Estimated
Tue 09:10:00 AM 31.8772 124.3030 252° West  Level Estimated
Tue 09:11:00 AM 31.8446 124.1872 252° West  Level Estimated
Tue 09:12:00 AM 31.8120 124.0715 252° West  Level Estimated
Tue 09:13:00 AM 31.7792 123.9558 252° West  Level Estimated
Tue 09:14:00 AM 31.7463 123.8403 252° West  Level Estimated
Tue 09:15:00 AM 31.7134 123.7248 251° West  Level Estimated
Tue 09:16:00 AM 31.6803 123.6094 251° West  Level Estimated
Tue 09:17:00 AM 31.6471 123.4940 251° West  Level Estimated
Tue 09:18:00 AM 31.6138 123.3788 251° West  Level Estimated
Tue 09:19:00 AM 31.5805 123.2636 251° West  Level Estimated
Tue 09:20:00 AM 31.5470 123.1486 251° West  Level Estimated
Tue 09:21:00 AM 31.5134 123.0335 251° West  Level Estimated
Tue 09:22:00 AM 31.4797 122.9186 251° West  Level Estimated
Tue 09:23:00 AM 31.4459 122.8038 251° West  Level Estimated
Tue 09:24:00 AM 31.4120 122.6891 251° West  Level Estimated
Tue 09:25:00 AM 31.3780 122.5744 251° West  Level Estimated
Tue 09:26:00 AM 31.3439 122.4598 251° West  Level Estimated
Tue 09:27:00 AM 31.3097 122.3453 251° West  Level Estimated
Tue 09:28:00 AM 31.2754 122.2309 251° West  Level Estimated
Tue 09:29:00 AM 31.2410 122.1166 251° West  Level Estimated
Tue 09:30:00 AM 31.2065 122.0023 251° West  Level Estimated
Tue 09:30:36 AM 31.3890 121.8140 251° West 203 234 2,900  Level FlightAware ADS-B
Tue 09:30:44 AM 31.3970 121.8110 342° North 191 220 2,800 -1,231 Descending FlightAware ADS-B
Tue 09:31:00 AM 31.1719 121.8881 251° West  Level Estimated
Tue 09:31:15 AM 31.4240 121.8010 342° North 192 221 2,100  Level FlightAware ADS-B
Tue 09:31:35 AM 31.4380 121.7860 318° Northwest 202 232 2,000 -200 Descending FlightAware ADS-B
Tue 09:31:45 AM 31.4400 121.7750 282° West 197 227 2,000  Level FlightAware ADS-B
Tue 09:32:14 AM 31.4370 121.7460 263° West 193 222 2,000  Level FlightAware ADS-B
Tue 09:32:25 AM 31.4310 121.7390 225° Southwest 174 200 2,000  Level FlightAware ADS-B
Tue 09:32:40 AM 31.4200 121.7330 205° Southwest 170 196 2,000  Level FlightAware ADS-B
Tue 09:33:09 AM 31.3950 121.7250 195° South 165 190 2,000  Level FlightAware ADS-B
Tue 09:33:36 AM 31.3780 121.7220 189° South 165 190 2,000  Level FlightAware ADS-B
Tue 09:34:48 AM 31.3200 121.7510 157° South 173 199 2,000  Level FlightAware ADS-B
Tue 09:35:18 AM 31.3000 121.7580 163° South 173 199 2,000 -86 Level FlightAware ADS-B
Tue 09:35:58 AM 31.2680 121.7710 161° South 171 197 1,900 -257 Descending FlightAware ADS-B
Tue 09:36:28 AM 31.2450 121.7790 163° South 173 199 1,700 -526 Descending FlightAware ADS-B
Tue 09:36:55 AM 31.2280 121.7860 161° South 153 176 1,400 -706 Descending FlightAware ADS-B
Tue 09:37:02 AM 31.2220 121.7880 164° South 155 178 1,300 -171 Descending FlightAware ADS-B
Tue 09:37:30 AM 31.2050 121.7940 163° South 155 178 1,300 -761 Level FlightAware ADS-B
Tue 09:38:13 AM 31.1750 121.8060 161° South 138 159 400 -1,256 Descending FlightAware ADS-B

Login

Don't have an account? Register now (free) for customized features, flight alerts, and more!